Time;durP1;ratioP1;P1;durP2;ratioP2;P2;SDS_P1;SDS_P2;PMS_P1;PMS_P2;Temp;Humidity;BMP_temperature;BMP_pressure;BME280_temperature;BME280_humidity;BME280_pressure;Samples;Min_cycle;Max_cycle;Signal;HPM_P1;HPM_P2
2022/03/27 00:01:10;;;;;;;1.40;0.90;;;19.60;46.30;;;;;;6194489;28;20023;-68
2022/03/27 00:04:10;;;;;;;1.90;1.40;;;19.60;46.30;;;;;;6195247;28;20114;-68
2022/03/27 00:07:11;;;;;;;1.80;1.27;;;19.60;46.30;;;;;;6194653;28;20054;-68
2022/03/27 00:10:11;;;;;;;1.70;1.40;;;19.60;46.20;;;;;;6195381;28;20072;-68
2022/03/27 00:13:12;;;;;;;1.50;1.10;;;19.60;46.10;;;;;;6194545;28;20378;-68
2022/03/27 00:16:13;;;;;;;1.35;1.05;;;19.60;46.20;;;;;;6194734;28;20097;-68
2022/03/27 00:19:14;;;;;;;1.65;1.10;;;19.60;46.20;;;;;;6194650;28;20049;-68
2022/03/27 00:22:15;;;;;;;2.03;1.10;;;19.60;46.10;;;;;;6195203;28;20105;-68
2022/03/27 00:25:15;;;;;;;1.30;1.05;;;19.70;46.20;;;;;;6194766;28;20033;-68
2022/03/27 00:28:16;;;;;;;1.63;1.17;;;19.60;46.10;;;;;;6194152;28;20474;-68
2022/03/27 00:31:17;;;;;;;2.28;1.42;;;19.60;46.20;;;;;;6194145;28;20077;-68
2022/03/27 00:34:19;;;;;;;1.50;1.10;;;19.60;46.10;;;;;;6194174;28;20037;-68
2022/03/27 00:37:20;;;;;;;1.95;1.30;;;19.60;46.10;;;;;;6194665;28;20042;-68
2022/03/27 00:40:21;;;;;;;1.48;1.08;;;19.60;46.20;;;;;;6194704;28;20045;-68
2022/03/27 00:43:22;;;;;;;1.13;1.02;;;19.60;46.10;;;;;;6193853;28;20027;-68
2022/03/27 00:46:23;;;;;;;1.90;1.23;;;19.60;46.10;;;;;;6194033;28;20056;-68
2022/03/27 00:49:23;;;;;;;2.15;1.40;;;19.60;46.10;;;;;;6194075;28;20117;-68
2022/03/27 00:52:24;;;;;;;1.55;1.13;;;19.60;46.10;;;;;;6194138;28;20019;-68
2022/03/27 00:55:24;;;;;;;1.33;1.00;;;19.60;46.10;;;;;;6193984;28;20186;-68
2022/03/27 00:58:25;;;;;;;2.00;1.40;;;19.70;46.20;;;;;;6194301;28;20572;-68
2022/03/27 01:01:34;;;;;;;1.50;1.13;;;19.60;46.10;;;;;;6194281;28;20084;-69
2022/03/27 01:04:34;;;;;;;1.73;1.20;;;19.60;46.10;;;;;;6192354;28;20398;-68
2022/03/27 01:07:38;;;;;;;1.40;1.20;;;19.60;46.10;;;;;;6193773;28;20034;-68
2022/03/27 01:10:41;;;;;;;1.98;1.40;;;19.60;46.10;;;;;;6193787;28;20027;-68
2022/03/27 01:13:43;;;;;;;1.17;1.00;;;19.60;46.10;;;;;;6197576;28;20022;-68
2022/03/27 01:16:48;;;;;;;3.25;1.38;;;19.60;46.10;;;;;;6198552;28;20184;-68
2022/03/27 01:19:50;;;;;;;1.92;1.35;;;19.70;46.20;;;;;;6198743;28;20504;-68
2022/03/27 01:22:51;;;;;;;2.50;1.40;;;19.60;46.20;;;;;;6198965;28;20030;-68
2022/03/27 01:25:51;;;;;;;1.52;1.20;;;19.60;46.10;;;;;;6199376;28;20066;-68
2022/03/27 01:28:52;;;;;;;2.80;1.60;;;19.60;46.20;;;;;;6198046;28;20430;-68
2022/03/27 01:31:53;;;;;;;1.63;1.10;;;19.60;46.10;;;;;;6198675;28;20474;-68
2022/03/27 01:34:54;;;;;;;1.73;1.30;;;19.60;46.10;;;;;;6198111;28;20053;-68
2022/03/27 01:37:55;;;;;;;3.80;1.20;;;19.60;46.10;;;;;;6198480;28;20041;-68
2022/03/27 01:40:55;;;;;;;1.90;1.40;;;19.60;46.10;;;;;;6198647;28;20022;-68
2022/03/27 01:43:56;;;;;;;1.55;1.30;;;19.60;46.10;;;;;;6198378;28;20454;-68
2022/03/27 01:46:57;;;;;;;1.88;1.20;;;19.60;46.10;;;;;;6198149;28;20543;-68
2022/03/27 01:49:58;;;;;;;1.30;1.20;;;19.60;46.10;;;;;;6197879;28;20030;-68
2022/03/27 01:52:58;;;;;;;2.05;1.33;;;19.60;46.20;;;;;;6198154;28;20031;-68
2022/03/27 01:55:59;;;;;;;1.60;1.27;;;19.60;46.00;;;;;;6198026;28;20452;-68
2022/03/27 01:59:00;;;;;;;1.10;0.95;;;19.60;46.20;;;;;;6198262;28;20324;-68
2022/03/27 02:02:01;;;;;;;1.90;1.40;;;19.60;46.10;;;;;;6197896;28;20429;-68
2022/03/27 02:05:02;;;;;;;1.73;1.20;;;19.60;46.00;;;;;;6197749;28;20461;-68
2022/03/27 02:08:03;;;;;;;2.50;1.50;;;19.60;46.70;;;;;;6197654;28;20109;-68
2022/03/27 02:11:05;;;;;;;2.20;1.20;;;19.60;46.10;;;;;;6197865;28;20029;-68
2022/03/27 02:14:05;;;;;;;1.70;1.40;;;19.60;46.10;;;;;;6197668;28;20033;-68
2022/03/27 02:17:07;;;;;;;1.48;1.25;;;19.60;46.00;;;;;;6197553;28;20022;-68
2022/03/27 02:20:09;;;;;;;2.33;1.35;;;19.60;46.00;;;;;;6197020;28;20120;-68
2022/03/27 02:23:10;;;;;;;1.58;1.30;;;19.60;46.10;;;;;;6197329;28;20034;-68
2022/03/27 02:26:10;;;;;;;1.70;1.38;;;19.60;46.20;;;;;;6196250;28;20469;-68
2022/03/27 02:29:15;;;;;;;1.95;1.50;;;19.60;46.10;;;;;;6196456;28;20061;-68
2022/03/27 02:32:15;;;;;;;1.90;1.25;;;19.60;46.10;;;;;;6197023;28;20029;-68
2022/03/27 02:35:16;;;;;;;1.13;1.02;;;19.60;46.10;;;;;;6197194;28;20042;-68
2022/03/27 02:38:17;;;;;;;2.03;1.38;;;19.60;46.20;;;;;;6196960;28;20030;-69
2022/03/27 02:41:17;;;;;;;1.70;1.40;;;19.60;46.20;;;;;;6197072;28;20034;-68
2022/03/27 02:44:19;;;;;;;1.48;1.23;;;19.60;46.40;;;;;;6196771;28;20022;-68
2022/03/27 02:47:19;;;;;;;2.45;1.52;;;19.60;46.30;;;;;;6196964;28;20084;-68
2022/03/27 02:50:20;;;;;;;1.92;1.35;;;19.60;46.30;;;;;;6196709;28;20034;-68
2022/03/27 02:53:21;;;;;;;1.60;1.25;;;19.60;46.20;;;;;;6196928;28;20573;-68
2022/03/27 02:56:21;;;;;;;1.80;1.50;;;19.60;46.30;;;;;;6196478;28;20045;-68
2022/03/27 02:59:22;;;;;;;1.30;1.17;;;19.60;46.20;;;;;;6196542;28;20083;-68
2022/03/27 03:02:22;;;;;;;2.25;1.52;;;19.60;46.30;;;;;;6196188;28;20011;-68
2022/03/27 03:05:23;;;;;;;1.90;1.30;;;19.60;46.30;;;;;;6196776;28;20138;-68
2022/03/27 03:08:26;;;;;;;3.25;1.55;;;19.60;46.30;;;;;;6195794;28;20049;-68
2022/03/27 03:11:27;;;;;;;1.90;1.33;;;19.60;46.30;;;;;;6196328;28;20490;-68
2022/03/27 03:14:27;;;;;;;1.80;1.13;;;19.60;46.30;;;;;;6196134;28;20061;-68
2022/03/27 03:17:28;;;;;;;2.55;1.65;;;19.60;46.20;;;;;;6196521;28;20279;-68
2022/03/27 03:20:29;;;;;;;2.35;1.58;;;19.60;46.30;;;;;;6196000;28;20026;-68
2022/03/27 03:23:29;;;;;;;1.95;1.40;;;19.60;46.20;;;;;;6196335;28;20058;-68
2022/03/27 03:26:30;;;;;;;1.63;1.27;;;19.60;46.10;;;;;;6195830;28;20042;-68
2022/03/27 03:29:30;;;;;;;2.08;1.58;;;19.60;46.00;;;;;;6195177;28;20046;-68
2022/03/27 03:32:33;;;;;;;2.10;1.77;;;19.60;46.00;;;;;;6195598;28;20120;-68
2022/03/27 03:35:34;;;;;;;2.10;1.42;;;19.60;46.00;;;;;;6195241;28;20036;-68
2022/03/27 03:38:34;;;;;;;2.08;1.30;;;19.60;46.00;;;;;;6195845;28;20027;-68
2022/03/27 03:41:35;;;;;;;2.55;1.70;;;19.60;46.10;;;;;;6195109;28;20092;-68
2022/03/27 03:44:36;;;;;;;2.42;1.42;;;19.60;46.00;;;;;;6195331;28;20034;-68
2022/03/27 03:47:37;;;;;;;1.67;1.45;;;19.60;46.00;;;;;;6195354;28;20034;-69
2022/03/27 03:50:37;;;;;;;1.70;1.40;;;19.60;46.10;;;;;;6195347;28;20033;-68
2022/03/27 03:53:38;;;;;;;1.67;1.27;;;19.60;46.00;;;;;;6195066;28;20540;-68
2022/03/27 03:56:39;;;;;;;3.33;1.52;;;19.60;46.00;;;;;;6195585;28;20062;-68
2022/03/27 03:59:39;;;;;;;2.38;1.33;;;19.60;46.10;;;;;;6195118;28;20101;-68
2022/03/27 04:02:40;;;;;;;1.70;1.33;;;19.60;46.00;;;;;;6194961;28;20466;-68
2022/03/27 04:05:40;;;;;;;1.83;1.50;;;19.60;46.00;;;;;;6195307;28;20066;-68
2022/03/27 04:08:41;;;;;;;2.03;1.33;;;19.60;46.10;;;;;;6194907;28;20053;-68
2022/03/27 04:11:43;;;;;;;2.47;1.80;;;19.60;46.00;;;;;;6194815;28;20084;-68
2022/03/27 04:14:43;;;;;;;3.72;1.90;;;19.60;46.10;;;;;;6194723;28;20030;-68
2022/03/27 04:17:45;;;;;;;1.35;1.05;;;19.60;46.10;;;;;;6194765;28;20045;-68
2022/03/27 04:20:46;;;;;;;2.22;1.60;;;19.60;46.10;;;;;;6194502;28;20030;-68
2022/03/27 04:23:46;;;;;;;2.22;1.50;;;19.60;46.10;;;;;;6194460;28;20025;-68
2022/03/27 04:26:47;;;;;;;2.65;1.60;;;19.60;46.10;;;;;;6194765;28;20037;-68
2022/03/27 04:29:47;;;;;;;1.75;1.30;;;19.60;46.00;;;;;;6193950;28;20069;-68
2022/03/27 04:32:48;;;;;;;2.00;1.60;;;19.60;46.00;;;;;;6194500;28;20523;-68
2022/03/27 04:35:49;;;;;;;2.47;1.70;;;19.60;46.00;;;;;;6194284;28;20022;-68
2022/03/27 04:38:49;;;;;;;2.35;1.60;;;19.60;46.10;;;;;;6194686;28;20030;-68
2022/03/27 04:41:50;;;;;;;2.67;1.85;;;19.60;46.10;;;;;;6194118;28;20034;-68
2022/03/27 04:44:50;;;;;;;1.90;1.67;;;19.60;46.00;;;;;;6194105;28;20042;-68
2022/03/27 04:47:51;;;;;;;2.70;1.33;;;19.60;46.00;;;;;;6193482;28;20044;-68
2022/03/27 04:50:53;;;;;;;1.83;1.40;;;19.60;46.00;;;;;;6194307;28;20516;-68
2022/03/27 04:53:53;;;;;;;1.90;1.50;;;19.60;46.00;;;;;;6194063;28;20092;-68
2022/03/27 04:56:54;;;;;;;2.25;1.63;;;19.60;46.10;;;;;;6194341;28;20501;-68
2022/03/27 05:00:38;;;;;;;1.60;1.40;;;19.60;46.00;;;;;;6194605;28;20029;-68
2022/03/27 05:03:39;;;;;;;2.00;1.63;;;19.60;46.10;;;;;;6171607;28;20027;-68
2022/03/27 05:06:39;;;;;;;3.10;1.33;;;19.60;46.30;;;;;;6169955;28;20035;-68
2022/03/27 05:09:40;;;;;;;2.20;1.67;;;19.60;46.20;;;;;;6169799;28;20122;-68
2022/03/27 05:12:41;;;;;;;2.58;1.52;;;19.60;46.20;;;;;;6169878;28;20494;-68
2022/03/27 05:15:42;;;;;;;2.92;1.55;;;19.60;46.20;;;;;;6193680;28;20374;-68
2022/03/27 05:18:43;;;;;;;1.60;1.40;;;19.60;46.20;;;;;;6194411;28;20026;-68
2022/03/27 05:21:43;;;;;;;2.72;1.77;;;19.60;46.30;;;;;;6194201;28;20100;-68
2022/03/27 05:24:45;;;;;;;1.50;1.30;;;19.50;46.20;;;;;;6193511;28;20053;-68
2022/03/27 05:27:48;;;;;;;3.33;1.70;;;19.60;46.20;;;;;;6193557;28;20649;-68
2022/03/27 05:30:49;;;;;;;1.63;1.13;;;19.60;46.30;;;;;;6193586;28;20065;-68
2022/03/27 05:33:49;;;;;;;2.22;1.50;;;19.60;46.30;;;;;;6194210;28;20030;-69
2022/03/27 05:36:50;;;;;;;1.73;1.40;;;19.60;46.30;;;;;;6193841;28;20482;-68
2022/03/27 05:39:50;;;;;;;2.67;1.73;;;19.60;46.30;;;;;;6194135;28;20033;-68
2022/03/27 05:42:52;;;;;;;2.70;1.77;;;19.50;46.20;;;;;;6193203;28;20023;-68
2022/03/27 05:45:53;;;;;;;1.80;1.40;;;19.50;46.10;;;;;;6193286;28;20023;-68
2022/03/27 05:48:54;;;;;;;3.10;1.90;;;19.50;46.30;;;;;;6193266;28;20418;-68
2022/03/27 05:51:54;;;;;;;1.73;1.17;;;19.60;46.30;;;;;;6193610;28;20026;-68
2022/03/27 05:54:56;;;;;;;1.98;1.58;;;19.50;46.10;;;;;;6193407;28;20469;-68
2022/03/27 05:57:56;;;;;;;2.55;1.70;;;19.60;46.30;;;;;;6193989;28;20496;-68
2022/03/27 06:00:57;;;;;;;1.70;1.42;;;19.60;46.30;;;;;;6197854;28;20053;-68
2022/03/27 06:03:57;;;;;;;2.05;1.67;;;19.50;46.20;;;;;;6197820;28;20113;-68
2022/03/27 06:06:58;;;;;;;2.15;1.70;;;19.60;46.40;;;;;;6197327;28;20030;-68
2022/03/27 06:09:58;;;;;;;1.58;1.30;;;19.50;46.20;;;;;;6197442;28;20236;-68
2022/03/27 06:13:01;;;;;;;2.50;1.60;;;19.60;46.30;;;;;;6197444;28;20034;-68
2022/03/27 06:16:01;;;;;;;2.00;1.65;;;19.50;46.20;;;;;;6197254;28;20023;-68
2022/03/27 06:19:02;;;;;;;2.45;1.90;;;19.50;46.20;;;;;;6196331;28;20109;-68
2022/03/27 06:22:02;;;;;;;2.60;1.73;;;19.50;46.20;;;;;;6197818;28;20106;-69
2022/03/27 06:25:03;;;;;;;2.28;1.45;;;19.50;46.20;;;;;;6197013;28;20436;-68
2022/03/27 06:28:05;;;;;;;2.33;1.67;;;19.60;46.30;;;;;;6197062;28;20042;-68
2022/03/27 06:31:05;;;;;;;1.90;1.60;;;19.60;46.30;;;;;;6196251;28;20386;-68
2022/03/27 06:34:06;;;;;;;2.60;1.85;;;19.50;46.20;;;;;;6196823;28;20072;-68
2022/03/27 06:37:08;;;;;;;2.05;1.58;;;19.50;46.20;;;;;;6196865;28;20022;-68
2022/03/27 06:40:10;;;;;;;2.50;1.40;;;19.50;46.20;;;;;;6197206;28;20061;-69
2022/03/27 06:43:10;;;;;;;1.98;1.60;;;19.50;46.10;;;;;;6196541;28;20027;-68
2022/03/27 06:46:16;;;;;;;2.13;1.70;;;19.60;46.00;;;;;;6196641;28;20049;-68
2022/03/27 06:49:17;;;;;;;5.13;2.20;;;19.60;46.00;;;;;;6196536;28;20331;-68
2022/03/27 06:52:18;;;;;;;2.20;1.80;;;19.60;46.10;;;;;;6196894;28;20030;-67
2022/03/27 06:55:20;;;;;;;2.47;1.63;;;19.60;46.00;;;;;;6196329;28;20034;-68
2022/03/27 06:58:20;;;;;;;2.03;1.75;;;19.60;46.00;;;;;;6196748;28;20023;-68
2022/03/27 07:04:40;;;;;;;2.58;1.90;;;19.60;46.10;;;;;;6196311;28;20034;-68
2022/03/27 07:07:42;;;;;;;2.13;1.52;;;19.60;46.10;;;;;;6196567;28;20512;-68
2022/03/27 07:10:44;;;;;;;2.22;1.80;;;19.60;46.20;;;;;;6195336;28;20037;-68
2022/03/27 07:13:45;;;;;;;2.10;1.60;;;19.60;46.10;;;;;;6196222;28;20634;-68
2022/03/27 07:16:46;;;;;;;3.20;1.70;;;19.60;46.20;;;;;;6195957;28;20029;-68
2022/03/27 07:19:47;;;;;;;2.33;1.80;;;19.60;46.20;;;;;;6196115;28;20026;-68
2022/03/27 07:22:48;;;;;;;1.85;1.58;;;19.60;46.20;;;;;;6195911;28;20149;-68
2022/03/27 07:25:53;;;;;;;2.13;1.75;;;19.60;46.20;;;;;;6196204;28;20309;-68
2022/03/27 07:28:54;;;;;;;2.83;1.80;;;19.60;46.30;;;;;;6195322;28;20124;-68
2022/03/27 07:31:54;;;;;;;3.58;2.13;;;19.60;46.30;;;;;;6195486;28;20084;-68
2022/03/27 07:34:56;;;;;;;2.10;1.77;;;19.60;46.30;;;;;;6195382;28;20058;-68
2022/03/27 07:37:57;;;;;;;2.15;1.83;;;19.60;46.30;;;;;;6196021;28;20061;-68
2022/03/27 07:40:59;;;;;;;2.40;1.90;;;19.60;46.30;;;;;;6195836;28;20022;-68
2022/03/27 07:43:59;;;;;;;2.65;1.70;;;19.60;46.30;;;;;;6195631;28;20022;-68
2022/03/27 07:47:01;;;;;;;1.83;1.52;;;19.60;46.30;;;;;;6195388;28;20393;-68
2022/03/27 07:50:02;;;;;;;2.65;1.70;;;19.60;46.40;;;;;;6195340;28;20057;-68
2022/03/27 07:53:04;;;;;;;5.35;1.85;;;19.60;46.40;;;;;;6195382;28;20018;-68
2022/03/27 07:56:05;;;;;;;2.33;1.73;;;19.60;46.40;;;;;;6195072;28;20027;-68
2022/03/27 07:59:05;;;;;;;1.90;1.45;;;19.60;46.40;;;;;;6195046;28;20079;-68
2022/03/27 08:02:06;;;;;;;3.25;1.80;;;19.60;46.40;;;;;;6194952;28;20034;-68
2022/03/27 08:05:07;;;;;;;2.55;1.60;;;19.60;46.40;;;;;;6194639;28;20085;-68
2022/03/27 08:08:08;;;;;;;2.20;1.70;;;19.60;46.40;;;;;;6194657;28;20027;-68
2022/03/27 08:11:09;;;;;;;2.05;1.60;;;19.60;46.40;;;;;;6194468;28;20086;-68
2022/03/27 08:14:10;;;;;;;2.20;1.90;;;19.60;46.40;;;;;;6195110;28;20092;-68
2022/03/27 08:17:11;;;;;;;2.08;1.50;;;19.60;46.40;;;;;;6194992;28;20030;-68
2022/03/27 08:20:12;;;;;;;2.70;1.50;;;19.60;46.40;;;;;;6194509;28;20030;-68
2022/03/27 08:23:12;;;;;;;2.65;2.00;;;19.60;46.40;;;;;;6193968;28;20497;-68
2022/03/27 08:29:38;;;;;;;1.65;1.40;;;19.60;46.30;;;;;;6193835;28;20484;-68
2022/03/27 08:32:38;;;;;;;1.98;1.48;;;19.60;46.30;;;;;;6194170;28;20416;-68
2022/03/27 08:35:41;;;;;;;2.22;1.67;;;19.60;46.30;;;;;;6194263;28;21154;-68
2022/03/27 08:38:42;;;;;;;1.90;1.42;;;19.60;46.30;;;;;;6194615;28;20046;-68
2022/03/27 08:41:44;;;;;;;2.40;1.60;;;19.60;46.30;;;;;;6194538;28;20026;-68
2022/03/27 08:44:44;;;;;;;1.90;1.50;;;19.60;46.30;;;;;;6193967;28;20069;-68
2022/03/27 08:47:47;;;;;;;2.03;1.65;;;19.60;46.30;;;;;;6194279;28;20038;-68
2022/03/27 08:51:20;;;;;;;2.30;1.90;;;19.60;46.30;;;;;;6193824;28;20085;-68
2022/03/27 08:54:25;;;;;;;2.53;1.42;;;19.60;46.30;;;;;;6193675;28;20037;-67
2022/03/27 08:57:37;;;;;;;2.40;1.52;;;19.60;46.30;;;;;;6194281;28;20378;-68
2022/03/27 09:00:39;;;;;;;2.65;1.60;;;19.60;46.30;;;;;;6193893;28;20373;-68
2022/03/27 09:03:40;;;;;;;2.20;1.58;;;19.60;46.50;;;;;;6193672;28;20022;-68
2022/03/27 09:06:40;;;;;;;2.40;1.80;;;19.60;46.30;;;;;;6194009;28;20034;-68
2022/03/27 09:09:41;;;;;;;1.58;1.45;;;19.60;46.30;;;;;;6193538;28;20084;-68
2022/03/27 09:12:43;;;;;;;2.30;1.63;;;19.60;46.30;;;;;;6193610;28;20567;-68
2022/03/27 09:15:45;;;;;;;2.28;1.33;;;19.60;46.30;;;;;;6193785;28;20039;-68
2022/03/27 09:18:54;;;;;;;2.67;2.03;;;19.60;46.30;;;;;;6193972;28;20033;-67
2022/03/27 09:21:56;;;;;;;1.90;1.30;;;19.60;46.30;;;;;;6193968;28;20069;-68
2022/03/27 09:25:03;;;;;;;2.35;1.50;;;19.60;46.30;;;;;;6193511;28;20023;-68
2022/03/27 09:28:04;;;;;;;1.45;1.27;;;19.60;46.30;;;;;;6193755;28;20080;-68
2022/03/27 09:31:20;;;;;;;2.00;1.40;;;19.60;46.30;;;;;;6192720;28;20416;-68
2022/03/27 09:34:21;;;;;;;2.20;1.50;;;19.60;46.30;;;;;;6196466;28;20394;-68
2022/03/27 09:37:32;;;;;;;1.77;1.23;;;19.60;46.30;;;;;;6198455;28;20038;-68
2022/03/27 09:40:36;;;;;;;2.22;1.60;;;19.60;46.30;;;;;;6198406;28;20481;-68
2022/03/27 09:43:36;;;;;;;1.95;1.40;;;19.60;46.30;;;;;;6197940;28;20501;-68
2022/03/27 09:46:47;;;;;;;1.85;1.50;;;19.60;46.30;;;;;;6198045;28;20101;-68
2022/03/27 09:49:48;;;;;;;2.03;1.40;;;19.60;46.30;;;;;;6198358;28;20035;-68
2022/03/27 09:52:48;;;;;;;1.88;1.38;;;19.60;46.30;;;;;;6197447;28;20037;-68
2022/03/27 09:55:53;;;;;;;1.30;1.20;;;19.60;46.30;;;;;;6198469;28;20421;-68
2022/03/27 09:58:53;;;;;;;1.73;1.48;;;19.60;46.30;;;;;;6197660;28;20019;-68
2022/03/27 10:01:54;;;;;;;1.83;1.40;;;19.60;46.30;;;;;;6197671;28;20375;-68
2022/03/27 10:05:17;;;;;;;1.55;1.25;;;19.60;46.40;;;;;;6197399;28;20077;-68
2022/03/27 10:08:18;;;;;;;2.28;1.23;;;19.60;46.40;;;;;;6197874;28;20031;-68
2022/03/27 10:11:22;;;;;;;2.25;1.50;;;19.60;46.30;;;;;;6197332;28;20034;-68
2022/03/27 10:14:24;;;;;;;0.73;0.67;;;19.60;46.30;;;;;;6197784;28;20099;-68
2022/03/27 10:17:27;;;;;;;1.80;1.30;;;19.60;46.30;;;;;;6197643;28;20473;-68
2022/03/27 10:20:31;;;;;;;1.63;1.15;;;19.60;46.40;;;;;;6197872;28;20492;-68
2022/03/27 10:23:32;;;;;;;1.35;1.20;;;19.60;46.30;;;;;;6197518;28;20073;-68
2022/03/27 10:26:33;;;;;;;1.65;1.27;;;19.60;46.30;;;;;;6197574;28;20030;-68
2022/03/27 10:29:35;;;;;;;1.67;1.20;;;19.60;46.40;;;;;;6196903;28;20039;-68
2022/03/27 10:32:38;;;;;;;1.17;1.05;;;19.60;46.30;;;;;;6196719;28;20514;-68
2022/03/27 10:35:55;;;;;;;1.13;1.00;;;19.60;46.30;;;;;;6197307;28;20030;-68
2022/03/27 10:39:06;;;;;;;1.67;1.40;;;19.60;46.40;;;;;;6197650;28;20121;-68
2022/03/27 10:42:11;;;;;;;1.65;1.30;;;19.60;47.10;;;;;;6196978;28;20037;-68
2022/03/27 10:45:17;;;;;;;1.20;1.10;;;19.60;46.40;;;;;;6172843;28;20026;-68
2022/03/27 10:48:21;;;;;;;1.33;1.08;;;19.60;46.40;;;;;;6172896;28;20470;-68
2022/03/27 10:51:25;;;;;;;1.60;1.33;;;19.60;46.30;;;;;;6172649;28;20502;-68
2022/03/27 10:54:25;;;;;;;1.20;1.10;;;19.60;46.40;;;;;;6172527;28;20027;-68
2022/03/27 10:57:46;;;;;;;1.80;1.20;;;19.60;46.40;;;;;;6172904;28;20041;-68
2022/03/27 11:00:47;;;;;;;1.15;1.00;;;19.60;46.30;;;;;;6172376;28;20027;-68
2022/03/27 11:04:08;;;;;;;1.83;1.30;;;19.60;46.40;;;;;;6172126;28;20190;-68
2022/03/27 11:07:15;;;;;;;2.00;1.27;;;19.60;46.40;;;;;;6172512;28;20102;-68
2022/03/27 11:10:40;;;;;;;2.67;1.25;;;19.60;46.30;;;;;;6178614;28;20050;-68
2022/03/27 11:13:43;;;;;;;1.50;1.20;;;19.60;46.40;;;;;;6196105;28;20034;-68
2022/03/27 11:17:07;;;;;;;1.20;1.08;;;19.60;46.40;;;;;;6195778;28;20121;-68
2022/03/27 11:20:30;;;;;;;1.58;1.30;;;19.60;46.40;;;;;;6194908;28;20038;-68
2022/03/27 11:23:33;;;;;;;1.52;1.20;;;19.60;46.40;;;;;;6184528;28;20441;-69
2022/03/27 11:26:34;;;;;;;1.35;1.05;;;19.60;46.40;;;;;;6187997;28;20014;-69
2022/03/27 11:29:35;;;;;;;1.30;1.10;;;19.60;46.50;;;;;;6193662;28;20054;-68
2022/03/27 11:32:55;;;;;;;2.03;1.23;;;19.60;46.30;;;;;;6204616;28;20025;-68
2022/03/27 11:39:08;;;;;;;7.45;1.30;;;19.60;45.90;;;;;;6207598;28;20393;-68
2022/03/27 11:42:31;;;;;;;13.13;1.45;;;19.60;46.00;;;;;;6194192;28;20058;-68
2022/03/27 11:45:37;;;;;;;3.55;1.55;;;19.70;45.90;;;;;;6194085;28;20034;-68
2022/03/27 11:48:37;;;;;;;5.10;1.30;;;19.70;46.00;;;;;;6201533;28;20037;-68
2022/03/27 11:51:38;;;;;;;7.60;1.90;;;19.70;45.80;;;;;;6218292;28;20040;-68
2022/03/27 11:54:40;;;;;;;5.22;1.80;;;19.70;45.20;;;;;;6217729;28;20416;-68
2022/03/27 11:57:46;;;;;;;17.40;2.00;;;19.60;44.80;;;;;;6217909;28;20034;-67
2022/03/27 12:00:46;;;;;;;9.60;1.70;;;19.60;44.70;;;;;;6218465;28;20515;-68
2022/03/27 12:03:57;;;;;;;21.27;2.28;;;19.60;44.90;;;;;;6217718;28;20026;-67
2022/03/27 12:06:59;;;;;;;11.95;1.42;;;19.60;44.60;;;;;;6218059;28;20026;-68
2022/03/27 12:10:02;;;;;;;6.43;1.83;;;19.60;44.30;;;;;;6218462;28;20125;-68
2022/03/27 12:13:07;;;;;;;5.15;1.90;;;19.60;44.00;;;;;;6217714;28;20033;-68
2022/03/27 12:16:22;;;;;;;9.32;1.80;;;19.60;43.80;;;;;;6217798;28;20389;-67
2022/03/27 12:19:23;;;;;;;14.53;2.10;;;19.60;44.30;;;;;;6197220;28;20023;-67
2022/03/27 12:22:41;;;;;;;11.95;1.90;;;19.60;44.10;;;;;;6193136;28;20540;-67
2022/03/27 12:25:42;;;;;;;12.70;2.10;;;19.60;44.30;;;;;;6192533;28;20018;-67
2022/03/27 12:32:07;;;;;;;9.27;1.75;;;19.60;44.70;;;;;;6184388;28;20109;-68
2022/03/27 12:35:08;;;;;;;9.20;1.67;;;19.60;44.30;;;;;;6182119;28;20391;-68
2022/03/27 12:38:08;;;;;;;8.18;1.70;;;19.70;44.30;;;;;;6191394;28;20026;-68
2022/03/27 12:41:11;;;;;;;6.35;1.65;;;19.70;44.20;;;;;;6191113;28;20105;-67
2022/03/27 12:44:12;;;;;;;6.18;1.80;;;19.70;44.30;;;;;;6177977;28;20022;-67
2022/03/27 12:47:12;;;;;;;7.50;1.90;;;19.70;44.30;;;;;;6168403;28;20030;-67
2022/03/27 12:50:28;;;;;;;8.82;1.40;;;19.70;44.20;;;;;;6183929;28;20033;-67
2022/03/27 12:53:29;;;;;;;2.83;1.25;;;19.60;44.20;;;;;;6217006;28;20379;-68
2022/03/27 12:56:31;;;;;;;6.05;1.60;;;19.60;44.10;;;;;;6216962;28;20041;-67
2022/03/27 12:59:42;;;;;;;6.38;1.52;;;19.60;43.80;;;;;;6216465;28;20033;-67
2022/03/27 13:02:42;;;;;;;6.82;1.55;;;19.60;44.00;;;;;;6216425;28;20529;-68
2022/03/27 13:06:01;;;;;;;3.80;1.30;;;19.60;43.80;;;;;;6205550;28;20023;-67
2022/03/27 13:09:03;;;;;;;4.20;1.48;;;19.60;43.70;;;;;;6191731;28;20481;-67
2022/03/27 13:12:11;;;;;;;6.80;1.60;;;19.60;42.90;;;;;;6192048;28;20532;-68
2022/03/27 13:15:12;;;;;;;4.63;1.35;;;19.60;43.60;;;;;;6192105;28;20018;-68
2022/03/27 13:18:17;;;;;;;4.85;1.63;;;19.70;44.10;;;;;;6181342;28;20027;-68
2022/03/27 13:21:17;;;;;;;5.78;1.67;;;19.70;43.70;;;;;;6168626;28;20403;-68
2022/03/27 13:24:21;;;;;;;10.43;1.27;;;19.70;43.40;;;;;;6174787;28;20042;-67
2022/03/27 13:27:21;;;;;;;8.93;1.40;;;19.60;43.60;;;;;;6191987;28;20370;-67
2022/03/27 13:30:23;;;;;;;2.50;1.30;;;19.70;43.40;;;;;;6191153;28;20035;-68
2022/03/27 13:33:24;;;;;;;4.80;1.42;;;19.70;43.40;;;;;;6190798;28;20030;-68
2022/03/27 13:36:24;;;;;;;4.25;1.70;;;19.60;43.10;;;;;;6210331;28;20026;-68
2022/03/27 13:39:25;;;;;;;14.57;2.03;;;19.60;43.30;;;;;;6217029;28;20055;-68
2022/03/27 13:45:45;;;;;;;7.88;1.50;;;19.60;43.50;;;;;;6195798;28;20022;-68
2022/03/27 13:48:46;;;;;;;8.25;1.35;;;19.60;43.50;;;;;;6215871;28;20504;-68
2022/03/27 13:51:47;;;;;;;12.60;1.52;;;19.60;43.20;;;;;;6216186;28;20072;-68
2022/03/27 13:54:47;;;;;;;6.00;1.40;;;19.60;43.30;;;;;;6215906;28;20105;-67
2022/03/27 13:57:48;;;;;;;6.75;1.90;;;19.60;43.30;;;;;;6216419;28;20029;-68
2022/03/27 14:00:48;;;;;;;15.23;1.58;;;19.60;43.10;;;;;;6216282;28;20036;-68
2022/03/27 14:03:49;;;;;;;6.93;1.55;;;19.60;43.20;;;;;;6205597;28;20022;-68
2022/03/27 14:06:50;;;;;;;10.80;1.92;;;19.60;43.30;;;;;;6189840;28;20026;-68
2022/03/27 14:09:50;;;;;;;5.10;1.42;;;19.60;43.10;;;;;;6190669;28;20563;-68
2022/03/27 14:12:52;;;;;;;7.28;1.48;;;19.60;43.10;;;;;;6209648;28;20030;-68
2022/03/27 14:15:52;;;;;;;7.40;1.40;;;19.60;43.10;;;;;;6179303;28;20049;-68
2022/03/27 14:18:53;;;;;;;4.20;1.52;;;19.60;43.10;;;;;;6175552;28;20035;-68
2022/03/27 14:21:55;;;;;;;6.38;1.40;;;19.60;43.10;;;;;;6172409;28;20030;-68
2022/03/27 14:24:56;;;;;;;3.08;1.42;;;19.60;43.10;;;;;;6176893;28;20019;-68
2022/03/27 14:27:56;;;;;;;12.10;1.63;;;19.60;43.10;;;;;;6210432;28;20474;-68
2022/03/27 14:30:57;;;;;;;3.60;1.38;;;19.60;43.00;;;;;;6193077;28;20568;-68
2022/03/27 14:33:58;;;;;;;5.75;1.40;;;19.60;43.40;;;;;;6194678;28;20492;-68
2022/03/27 14:36:59;;;;;;;6.18;1.30;;;19.60;42.90;;;;;;6190943;28;20022;-68
2022/03/27 14:40:00;;;;;;;9.25;1.75;;;19.60;42.80;;;;;;6178589;28;20054;-68
2022/03/27 14:43:00;;;;;;;5.15;1.13;;;19.60;42.50;;;;;;6179704;28;20030;-68
2022/03/27 14:46:02;;;;;;;3.95;1.20;;;19.70;43.00;;;;;;6177457;28;20392;-68
2022/03/27 14:49:02;;;;;;;6.68;1.48;;;19.70;43.10;;;;;;6212436;28;20072;-68
2022/03/27 14:52:03;;;;;;;6.32;1.38;;;19.70;42.70;;;;;;6195747;28;20030;-69
2022/03/27 14:58:27;;;;;;;6.18;1.10;;;19.70;43.70;;;;;;6220357;28;20491;-68
2022/03/27 15:01:27;;;;;;;5.68;0.93;;;19.80;43.60;;;;;;6203345;28;20138;-68
2022/03/27 15:04:28;;;;;;;5.78;1.15;;;19.80;43.50;;;;;;6220439;28;20030;-68
2022/03/27 15:07:28;;;;;;;6.68;1.00;;;19.80;43.50;;;;;;6220510;28;20021;-68
2022/03/27 15:10:29;;;;;;;7.03;1.10;;;19.80;43.60;;;;;;6220288;28;20046;-67
2022/03/27 15:13:29;;;;;;;6.40;1.38;;;19.80;43.60;;;;;;6208980;28;20022;-68
2022/03/27 15:16:30;;;;;;;6.63;1.25;;;19.80;43.90;;;;;;6196227;28;20023;-67
2022/03/27 15:19:31;;;;;;;6.95;1.58;;;19.80;44.00;;;;;;6195359;28;20022;-67
2022/03/27 15:22:33;;;;;;;15.73;1.75;;;19.80;44.00;;;;;;6195781;28;20110;-68
2022/03/27 15:25:34;;;;;;;11.82;1.48;;;19.80;44.10;;;;;;6194757;28;20018;-67
2022/03/27 15:28:34;;;;;;;11.75;1.70;;;19.80;44.20;;;;;;6194758;28;20053;-67
2022/03/27 15:31:35;;;;;;;9.13;1.23;;;19.80;44.30;;;;;;6193925;28;20022;-67
2022/03/27 15:34:36;;;;;;;6.45;1.23;;;19.80;44.40;;;;;;6173851;28;20616;-68
2022/03/27 15:37:36;;;;;;;13.13;1.55;;;19.90;44.80;;;;;;6171130;28;20052;-67
2022/03/27 15:40:37;;;;;;;7.07;1.80;;;19.90;44.80;;;;;;6171549;28;20368;-67
2022/03/27 15:43:40;;;;;;;8.95;1.67;;;19.80;44.90;;;;;;6182517;28;20545;-67
2022/03/27 15:46:42;;;;;;;7.80;1.35;;;19.90;45.20;;;;;;6196122;28;20061;-67
2022/03/27 15:49:43;;;;;;;8.00;1.30;;;19.90;45.10;;;;;;6204618;28;20034;-67
2022/03/27 15:52:43;;;;;;;5.82;1.45;;;19.90;45.20;;;;;;6218754;28;20065;-67
2022/03/27 15:55:44;;;;;;;4.53;1.30;;;19.90;45.30;;;;;;6219116;28;20030;-67
2022/03/27 15:58:45;;;;;;;4.22;1.48;;;19.90;45.30;;;;;;6213776;28;20496;-67
2022/03/27 16:01:46;;;;;;;5.60;1.40;;;19.90;45.50;;;;;;6219774;28;20029;-68
2022/03/27 16:04:46;;;;;;;1.92;0.93;;;19.90;45.40;;;;;;6218757;28;20034;-67
2022/03/27 16:07:46;;;;;;;5.22;1.23;;;19.90;45.50;;;;;;6219496;28;20469;-67